<?xml version="1.0" encoding="UTF-8" standalone="no" ?>
<gpx xmlns="http://www.topografix.com/GPX/1/1" xmlns:xsi="http://www.w3.org/2001/XMLSchema-instance" xsi:schemaLocation="http://www.topografix.com/GPX/1/1 http://www.topografix.com/GPX/1/1/gpx.xsd" version="1.1" creator="VisuGPX - https://www.visugpx.com">
  <metadata>
    <name>13884452-Mallièvre la Boulaie</name>
  </metadata>
  <trk>
    <name><![CDATA[13884452-Mallièvre la Boulaie]]></name>
    <trkseg>
      <trkpt lat="46.91491" lon="-0.85325">
        <ele>154</ele>
        <time>2021-10-29T15:00:45Z</time>
      </trkpt>
      <trkpt lat="46.91541" lon="-0.85359">
        <ele>156</ele>
        <time>2021-10-29T15:01:29Z</time>
      </trkpt>
      <trkpt lat="46.9154" lon="-0.85462">
        <ele>157</ele>
        <time>2021-10-29T15:02:25Z</time>
      </trkpt>
      <trkpt lat="46.91604" lon="-0.85572">
        <ele>155</ele>
        <time>2021-10-29T15:03:45Z</time>
      </trkpt>
      <trkpt lat="46.91657" lon="-0.85672">
        <ele>151</ele>
        <time>2021-10-29T15:04:54Z</time>
      </trkpt>
      <trkpt lat="46.91643" lon="-0.85699">
        <ele>150</ele>
        <time>2021-10-29T15:05:12Z</time>
      </trkpt>
      <trkpt lat="46.91595" lon="-0.85617">
        <ele>151</ele>
        <time>2021-10-29T15:06:11Z</time>
      </trkpt>
      <trkpt lat="46.91563" lon="-0.85605">
        <ele>151</ele>
        <time>2021-10-29T15:06:38Z</time>
      </trkpt>
      <trkpt lat="46.91542" lon="-0.8563">
        <ele>150</ele>
        <time>2021-10-29T15:06:59Z</time>
      </trkpt>
      <trkpt lat="46.91444" lon="-0.85664">
        <ele>148</ele>
        <time>2021-10-29T15:08:20Z</time>
      </trkpt>
      <trkpt lat="46.9141" lon="-0.85704">
        <ele>147</ele>
        <time>2021-10-29T15:08:55Z</time>
      </trkpt>
      <trkpt lat="46.91414" lon="-0.85829">
        <ele>144</ele>
        <time>2021-10-29T15:10:03Z</time>
      </trkpt>
      <trkpt lat="46.91402" lon="-0.85964">
        <ele>142</ele>
        <time>2021-10-29T15:11:18Z</time>
      </trkpt>
      <trkpt lat="46.91441" lon="-0.85996">
        <ele>145</ele>
        <time>2021-10-29T15:11:54Z</time>
      </trkpt>
      <trkpt lat="46.91478" lon="-0.86061">
        <ele>148</ele>
        <time>2021-10-29T15:12:40Z</time>
      </trkpt>
      <trkpt lat="46.91481" lon="-0.86139">
        <ele>148</ele>
        <time>2021-10-29T15:13:23Z</time>
      </trkpt>
      <trkpt lat="46.91459" lon="-0.86208">
        <ele>144</ele>
        <time>2021-10-29T15:14:04Z</time>
      </trkpt>
      <trkpt lat="46.91404" lon="-0.86263">
        <ele>137</ele>
        <time>2021-10-29T15:14:58Z</time>
      </trkpt>
      <trkpt lat="46.91386" lon="-0.86231">
        <ele>137</ele>
        <time>2021-10-29T15:15:20Z</time>
      </trkpt>
      <trkpt lat="46.91341" lon="-0.86301">
        <ele>135</ele>
        <time>2021-10-29T15:16:13Z</time>
      </trkpt>
      <trkpt lat="46.91332" lon="-0.8638">
        <ele>134</ele>
        <time>2021-10-29T15:16:57Z</time>
      </trkpt>
      <trkpt lat="46.91276" lon="-0.86487">
        <ele>136</ele>
        <time>2021-10-29T15:18:10Z</time>
      </trkpt>
      <trkpt lat="46.91239" lon="-0.86516">
        <ele>136</ele>
        <time>2021-10-29T15:18:44Z</time>
      </trkpt>
      <trkpt lat="46.91202" lon="-0.86543">
        <ele>137</ele>
        <time>2021-10-29T15:19:17Z</time>
      </trkpt>
      <trkpt lat="46.91161" lon="-0.86525">
        <ele>139</ele>
        <time>2021-10-29T15:19:51Z</time>
      </trkpt>
      <trkpt lat="46.91143" lon="-0.86449">
        <ele>145</ele>
        <time>2021-10-29T15:20:35Z</time>
      </trkpt>
      <trkpt lat="46.91107" lon="-0.86469">
        <ele>142</ele>
        <time>2021-10-29T15:21:06Z</time>
      </trkpt>
      <trkpt lat="46.91123" lon="-0.86525">
        <ele>137</ele>
        <time>2021-10-29T15:21:39Z</time>
      </trkpt>
      <trkpt lat="46.91091" lon="-0.86573">
        <ele>130</ele>
        <time>2021-10-29T15:22:16Z</time>
      </trkpt>
      <trkpt lat="46.91039" lon="-0.86543">
        <ele>133</ele>
        <time>2021-10-29T15:23:01Z</time>
      </trkpt>
      <trkpt lat="46.9098" lon="-0.86545">
        <ele>134</ele>
        <time>2021-10-29T15:23:48Z</time>
      </trkpt>
      <trkpt lat="46.90956" lon="-0.86552">
        <ele>134</ele>
        <time>2021-10-29T15:24:08Z</time>
      </trkpt>
      <trkpt lat="46.9091" lon="-0.8653">
        <ele>138</ele>
        <time>2021-10-29T15:24:47Z</time>
      </trkpt>
      <trkpt lat="46.90876" lon="-0.86534">
        <ele>135</ele>
        <time>2021-10-29T15:25:14Z</time>
      </trkpt>
      <trkpt lat="46.90846" lon="-0.86516">
        <ele>133</ele>
        <time>2021-10-29T15:25:40Z</time>
      </trkpt>
      <trkpt lat="46.90877" lon="-0.86406">
        <ele>146</ele>
        <time>2021-10-29T15:26:45Z</time>
      </trkpt>
      <trkpt lat="46.90898" lon="-0.86328">
        <ele>151</ele>
        <time>2021-10-29T15:27:31Z</time>
      </trkpt>
      <trkpt lat="46.90945" lon="-0.86386">
        <ele>150</ele>
        <time>2021-10-29T15:28:20Z</time>
      </trkpt>
      <trkpt lat="46.90983" lon="-0.86389">
        <ele>151</ele>
        <time>2021-10-29T15:28:50Z</time>
      </trkpt>
      <trkpt lat="46.91025" lon="-0.86386">
        <ele>151</ele>
        <time>2021-10-29T15:29:24Z</time>
      </trkpt>
      <trkpt lat="46.91006" lon="-0.86346">
        <ele>153</ele>
        <time>2021-10-29T15:29:51Z</time>
      </trkpt>
      <trkpt lat="46.91044" lon="-0.86261">
        <ele>154</ele>
        <time>2021-10-29T15:30:46Z</time>
      </trkpt>
      <trkpt lat="46.9109" lon="-0.86216">
        <ele>155</ele>
        <time>2021-10-29T15:31:31Z</time>
      </trkpt>
      <trkpt lat="46.91128" lon="-0.86209">
        <ele>154</ele>
        <time>2021-10-29T15:32:01Z</time>
      </trkpt>
      <trkpt lat="46.9109" lon="-0.86155">
        <ele>156</ele>
        <time>2021-10-29T15:32:44Z</time>
      </trkpt>
      <trkpt lat="46.91026" lon="-0.86149">
        <ele>158</ele>
        <time>2021-10-29T15:33:35Z</time>
      </trkpt>
      <trkpt lat="46.90966" lon="-0.86148">
        <ele>159</ele>
        <time>2021-10-29T15:34:23Z</time>
      </trkpt>
      <trkpt lat="46.90991" lon="-0.86193">
        <ele>157</ele>
        <time>2021-10-29T15:34:55Z</time>
      </trkpt>
      <trkpt lat="46.90963" lon="-0.86214">
        <ele>156</ele>
        <time>2021-10-29T15:35:20Z</time>
      </trkpt>
      <trkpt lat="46.90863" lon="-0.86205">
        <ele>157</ele>
        <time>2021-10-29T15:36:40Z</time>
      </trkpt>
      <trkpt lat="46.90665" lon="-0.86119">
        <ele>163</ele>
        <time>2021-10-29T15:39:26Z</time>
      </trkpt>
      <trkpt lat="46.90609" lon="-0.8607">
        <ele>165</ele>
        <time>2021-10-29T15:40:18Z</time>
      </trkpt>
      <trkpt lat="46.9046" lon="-0.86012">
        <ele>161</ele>
        <time>2021-10-29T15:42:21Z</time>
      </trkpt>
      <trkpt lat="46.90412" lon="-0.86048">
        <ele>157</ele>
        <time>2021-10-29T15:43:04Z</time>
      </trkpt>
      <trkpt lat="46.9036" lon="-0.86057">
        <ele>150</ele>
        <time>2021-10-29T15:43:46Z</time>
      </trkpt>
      <trkpt lat="46.90332" lon="-0.86065">
        <ele>145</ele>
        <time>2021-10-29T15:44:09Z</time>
      </trkpt>
      <trkpt lat="46.90323" lon="-0.86097">
        <ele>142</ele>
        <time>2021-10-29T15:44:28Z</time>
      </trkpt>
      <trkpt lat="46.90301" lon="-0.86081">
        <ele>141</ele>
        <time>2021-10-29T15:44:48Z</time>
      </trkpt>
      <trkpt lat="46.90216" lon="-0.86079">
        <ele>138</ele>
        <time>2021-10-29T15:45:56Z</time>
      </trkpt>
      <trkpt lat="46.90237" lon="-0.86119">
        <ele>140</ele>
        <time>2021-10-29T15:46:23Z</time>
      </trkpt>
      <trkpt lat="46.90279" lon="-0.86158">
        <ele>141</ele>
        <time>2021-10-29T15:47:03Z</time>
      </trkpt>
      <trkpt lat="46.90287" lon="-0.86207">
        <ele>144</ele>
        <time>2021-10-29T15:47:31Z</time>
      </trkpt>
      <trkpt lat="46.90379" lon="-0.86351">
        <ele>141</ele>
        <time>2021-10-29T15:49:19Z</time>
      </trkpt>
      <trkpt lat="46.9039" lon="-0.86393">
        <ele>142</ele>
        <time>2021-10-29T15:49:43Z</time>
      </trkpt>
      <trkpt lat="46.90429" lon="-0.86436">
        <ele>142</ele>
        <time>2021-10-29T15:50:22Z</time>
      </trkpt>
      <trkpt lat="46.90474" lon="-0.86469">
        <ele>142</ele>
        <time>2021-10-29T15:51:03Z</time>
      </trkpt>
      <trkpt lat="46.90535" lon="-0.86492">
        <ele>141</ele>
        <time>2021-10-29T15:51:53Z</time>
      </trkpt>
      <trkpt lat="46.90583" lon="-0.86487">
        <ele>138</ele>
        <time>2021-10-29T15:52:32Z</time>
      </trkpt>
      <trkpt lat="46.90641" lon="-0.8648">
        <ele>136</ele>
        <time>2021-10-29T15:53:18Z</time>
      </trkpt>
      <trkpt lat="46.90693" lon="-0.86494">
        <ele>134</ele>
        <time>2021-10-29T15:54:01Z</time>
      </trkpt>
      <trkpt lat="46.90765" lon="-0.86595">
        <ele>135</ele>
        <time>2021-10-29T15:55:20Z</time>
      </trkpt>
      <trkpt lat="46.90824" lon="-0.86628">
        <ele>133</ele>
        <time>2021-10-29T15:56:11Z</time>
      </trkpt>
      <trkpt lat="46.9091" lon="-0.86682">
        <ele>130</ele>
        <time>2021-10-29T15:57:26Z</time>
      </trkpt>
      <trkpt lat="46.90957" lon="-0.86682">
        <ele>128</ele>
        <time>2021-10-29T15:58:04Z</time>
      </trkpt>
      <trkpt lat="46.91009" lon="-0.86718">
        <ele>127</ele>
        <time>2021-10-29T15:58:50Z</time>
      </trkpt>
      <trkpt lat="46.91076" lon="-0.86602">
        <ele>128</ele>
        <time>2021-10-29T16:00:13Z</time>
      </trkpt>
      <trkpt lat="46.9111" lon="-0.86573">
        <ele>132</ele>
        <time>2021-10-29T16:00:44Z</time>
      </trkpt>
      <trkpt lat="46.9112" lon="-0.86638">
        <ele>131</ele>
        <time>2021-10-29T16:01:21Z</time>
      </trkpt>
      <trkpt lat="46.91122" lon="-0.86687">
        <ele>131</ele>
        <time>2021-10-29T16:01:48Z</time>
      </trkpt>
      <trkpt lat="46.91144" lon="-0.86736">
        <ele>130</ele>
        <time>2021-10-29T16:02:20Z</time>
      </trkpt>
      <trkpt lat="46.91178" lon="-0.86732">
        <ele>132</ele>
        <time>2021-10-29T16:02:47Z</time>
      </trkpt>
      <trkpt lat="46.91198" lon="-0.86779">
        <ele>131</ele>
        <time>2021-10-29T16:03:17Z</time>
      </trkpt>
      <trkpt lat="46.91255" lon="-0.86868">
        <ele>130</ele>
        <time>2021-10-29T16:04:24Z</time>
      </trkpt>
      <trkpt lat="46.91317" lon="-0.86889">
        <ele>129</ele>
        <time>2021-10-29T16:05:15Z</time>
      </trkpt>
      <trkpt lat="46.91346" lon="-0.86925">
        <ele>127</ele>
        <time>2021-10-29T16:05:45Z</time>
      </trkpt>
      <trkpt lat="46.91337" lon="-0.8697">
        <ele>126</ele>
        <time>2021-10-29T16:06:11Z</time>
      </trkpt>
      <trkpt lat="46.91382" lon="-0.87021">
        <ele>126</ele>
        <time>2021-10-29T16:06:57Z</time>
      </trkpt>
      <trkpt lat="46.91452" lon="-0.87084">
        <ele>125</ele>
        <time>2021-10-29T16:08:02Z</time>
      </trkpt>
      <trkpt lat="46.91494" lon="-0.87144">
        <ele>125</ele>
        <time>2021-10-29T16:08:49Z</time>
      </trkpt>
      <trkpt lat="46.91562" lon="-0.87302">
        <ele>125</ele>
        <time>2021-10-29T16:10:31Z</time>
      </trkpt>
      <trkpt lat="46.91616" lon="-0.87358">
        <ele>125</ele>
        <time>2021-10-29T16:11:24Z</time>
      </trkpt>
      <trkpt lat="46.91688" lon="-0.87427">
        <ele>125</ele>
        <time>2021-10-29T16:12:33Z</time>
      </trkpt>
      <trkpt lat="46.91769" lon="-0.8745">
        <ele>126</ele>
        <time>2021-10-29T16:13:39Z</time>
      </trkpt>
      <trkpt lat="46.91833" lon="-0.87449">
        <ele>127</ele>
        <time>2021-10-29T16:14:31Z</time>
      </trkpt>
      <trkpt lat="46.91919" lon="-0.87443">
        <ele>130</ele>
        <time>2021-10-29T16:15:40Z</time>
      </trkpt>
      <trkpt lat="46.91987" lon="-0.87402">
        <ele>130</ele>
        <time>2021-10-29T16:16:38Z</time>
      </trkpt>
      <trkpt lat="46.92083" lon="-0.87328">
        <ele>128</ele>
        <time>2021-10-29T16:18:05Z</time>
      </trkpt>
      <trkpt lat="46.9207" lon="-0.8729">
        <ele>133</ele>
        <time>2021-10-29T16:18:29Z</time>
      </trkpt>
      <trkpt lat="46.92046" lon="-0.8729">
        <ele>134</ele>
        <time>2021-10-29T16:18:48Z</time>
      </trkpt>
      <trkpt lat="46.92051" lon="-0.87259">
        <ele>138</ele>
        <time>2021-10-29T16:19:05Z</time>
      </trkpt>
      <trkpt lat="46.92037" lon="-0.87241">
        <ele>141</ele>
        <time>2021-10-29T16:19:20Z</time>
      </trkpt>
      <trkpt lat="46.92002" lon="-0.87187">
        <ele>148</ele>
        <time>2021-10-29T16:20:01Z</time>
      </trkpt>
      <trkpt lat="46.92024" lon="-0.871">
        <ele>154</ele>
        <time>2021-10-29T16:20:52Z</time>
      </trkpt>
      <trkpt lat="46.91985" lon="-0.87057">
        <ele>152</ele>
        <time>2021-10-29T16:21:31Z</time>
      </trkpt>
      <trkpt lat="46.91945" lon="-0.87017">
        <ele>150</ele>
        <time>2021-10-29T16:22:09Z</time>
      </trkpt>
      <trkpt lat="46.9196" lon="-0.86914">
        <ele>156</ele>
        <time>2021-10-29T16:23:07Z</time>
      </trkpt>
      <trkpt lat="46.91926" lon="-0.86646">
        <ele>171</ele>
        <time>2021-10-29T16:25:36Z</time>
      </trkpt>
      <trkpt lat="46.91887" lon="-0.86656">
        <ele>168</ele>
        <time>2021-10-29T16:26:08Z</time>
      </trkpt>
      <trkpt lat="46.91789" lon="-0.86628">
        <ele>162</ele>
        <time>2021-10-29T16:27:28Z</time>
      </trkpt>
      <trkpt lat="46.91662" lon="-0.86555">
        <ele>154</ele>
        <time>2021-10-29T16:29:17Z</time>
      </trkpt>
      <trkpt lat="46.91625" lon="-0.86508">
        <ele>152</ele>
        <time>2021-10-29T16:29:56Z</time>
      </trkpt>
      <trkpt lat="46.91562" lon="-0.86536">
        <ele>149</ele>
        <time>2021-10-29T16:30:49Z</time>
      </trkpt>
      <trkpt lat="46.91519" lon="-0.86458">
        <ele>144</ele>
        <time>2021-10-29T16:31:44Z</time>
      </trkpt>
      <trkpt lat="46.9147" lon="-0.86398">
        <ele>141</ele>
        <time>2021-10-29T16:32:35Z</time>
      </trkpt>
      <trkpt lat="46.91398" lon="-0.86324">
        <ele>136</ele>
        <time>2021-10-29T16:33:45Z</time>
      </trkpt>
      <trkpt lat="46.91388" lon="-0.86218">
        <ele>137</ele>
        <time>2021-10-29T16:34:44Z</time>
      </trkpt>
      <trkpt lat="46.91423" lon="-0.86166">
        <ele>140</ele>
        <time>2021-10-29T16:35:24Z</time>
      </trkpt>
      <trkpt lat="46.91426" lon="-0.8609">
        <ele>141</ele>
        <time>2021-10-29T16:36:05Z</time>
      </trkpt>
      <trkpt lat="46.91415" lon="-0.86023">
        <ele>141</ele>
        <time>2021-10-29T16:36:43Z</time>
      </trkpt>
      <trkpt lat="46.91408" lon="-0.85882">
        <ele>143</ele>
        <time>2021-10-29T16:38:00Z</time>
      </trkpt>
      <trkpt lat="46.91413" lon="-0.85655">
        <ele>149</ele>
        <time>2021-10-29T16:40:05Z</time>
      </trkpt>
      <trkpt lat="46.91425" lon="-0.85574">
        <ele>153</ele>
        <time>2021-10-29T16:40:50Z</time>
      </trkpt>
      <trkpt lat="46.91441" lon="-0.85494">
        <ele>157</ele>
        <time>2021-10-29T16:41:36Z</time>
      </trkpt>
      <trkpt lat="46.91455" lon="-0.85419">
        <ele>158</ele>
        <time>2021-10-29T16:42:18Z</time>
      </trkpt>
      <trkpt lat="46.91483" lon="-0.8533">
        <ele>155</ele>
        <time>2021-10-29T16:43:12Z</time>
      </trkpt>
    </trkseg>
  </trk>
</gpx>